Weather History for Pittsburg, KS

Change the Weather History Date:

Tuesday, February 19, 2013

  Actual Average (KJLN) Record (KJLN)
Temperature  
Mean Temperature 34 °F 41 °F  
Max Temperature 41 °F 52 °F 75 °F (2011)
Min Temperature 28 °F 30 °F -1 °F (1978)
Degree Days  
Heating Degree Days 30 24  
Month to date heating degree days 503  
Since 1 July heating degree days 3052  
Cooling Degree Days 0 0  
Month to date cooling degree days 0  
Year to date cooling degree days 0  
Moisture  
Dew Point 18 °F    
Average Humidity 56    
Maximum Humidity 83    
Minimum Humidity 31    
Precipitation  
Precipitation 0.00 in 0.09 in 1.48 in (1955)
Month to date precipitation 1.49  
Year to date precipitation 3.52  
Sea Level Pressure  
Sea Level Pressure 30.24 in    
Wind  
Wind Speed 6 mph (NNW)    
Max Wind Speed 16 mph    
Max Gust Speed 22 mph    
Visibility 10 miles    
Events      
T = Trace of Precipitation, MM = Missing Value Source: NWS Daily Summary

Daily Weather History Graph

Daily Weather History Graph

Search for Another Location

Airport:

Trip Planner

Search our weather history database for the weather conditions in past years. The results will help you decide how hot, cold, wet, or windy it might be!

Date:

Astronomy

Feb. 19, 2013 Rise Set
Actual Time 7:02 AM CST 6:02 PM CST
Civil Twilight 6:36 AM CST 6:29 PM CST
Nautical Twilight 6:05 AM CST 7:00 PM CST
Astronomical Twilight 5:35 AM CST 7:30 PM CST
Moon 12:38 PM CST (2/19) 2:31 AM CST (2/19)
Length of Visible Light 11h 53m
Length of Day
10h 59m
Waxing Gibbous, 67% of the Moon is Illuminated
Feb 19
Waxing Gibbous
Feb 25
Full
Mar 4
Last Quarter
Mar 11
New
Mar 19
First Quarter

Hourly Weather History & Observations

Time (CST) Temp. Windchill Dew Point Humidity Pressure Visibility Wind Dir Wind Speed Gust Speed Precip Events Conditions
12:15 AM 32.9 °F 27.5 °F 20.8 °F 61% 30.14 in 10.0 mi North 5.8 mph - N/A   Clear
12:35 AM 32.7 °F 29.6 °F 20.7 °F 61% 30.14 in 10.0 mi North 3.5 mph - N/A   Clear
12:55 AM 31.6 °F - 20.5 °F 63% 30.15 in 10.0 mi Calm Calm - N/A   Clear
1:15 AM 30.7 °F 26.0 °F 21.2 °F 68% 30.16 in 10.0 mi West 4.6 mph - N/A   Clear
1:35 AM 30.7 °F - 21.9 °F 70% 30.15 in 10.0 mi Calm Calm - N/A   Clear
1:55 AM 30.7 °F 24.9 °F 23.5 °F 75% 30.16 in 10.0 mi WSW 5.8 mph - N/A   Clear
2:15 AM 30.7 °F 27.3 °F 22.8 °F 72% 30.16 in 10.0 mi West 3.5 mph - N/A   Clear
2:35 AM 30.2 °F - 23.0 °F 75% 30.15 in 10.0 mi Calm Calm - N/A   Clear
2:55 AM 28.4 °F - 23.9 °F 83% 30.15 in 10.0 mi Calm Calm - N/A   Clear
3:15 AM 30.4 °F 24.5 °F 25.2 °F 81% 30.15 in 10.0 mi WSW 5.8 mph - N/A   Clear
3:35 AM 30.7 °F - 24.6 °F 78% 30.15 in 10.0 mi Calm Calm - N/A   Clear
3:55 AM 29.8 °F - 23.0 °F 76% 30.15 in 10.0 mi Calm Calm - N/A   Clear
4:15 AM 28.9 °F - 22.3 °F 76% 30.15 in 10.0 mi Calm Calm - N/A   Clear
4:35 AM 29.3 °F 24.3 °F 23.0 °F 77% 30.16 in 10.0 mi NW 4.6 mph - N/A   Clear
4:55 AM 29.1 °F 25.4 °F 22.5 °F 76% 30.17 in 10.0 mi WNW 3.5 mph - N/A   Clear
5:15 AM 28.4 °F 22.2 °F 21.9 °F 77% 30.17 in 10.0 mi NNW 5.8 mph - N/A   Clear
5:35 AM 29.3 °F 24.3 °F 22.3 °F 75% 30.18 in 10.0 mi NW 4.6 mph - N/A   Clear
5:55 AM 30.7 °F 27.3 °F 23.2 °F 74% 30.19 in 10.0 mi WNW 3.5 mph - N/A   Clear
6:15 AM 28.8 °F 23.7 °F 21.7 °F 75% 30.20 in 10.0 mi NW 4.6 mph - N/A   Clear
6:35 AM 28.2 °F 24.4 °F 21.2 °F 75% 30.21 in 10.0 mi NW 3.5 mph - N/A   Clear
6:55 AM 28.2 °F 23.1 °F 21.2 °F 75% 30.22 in 10.0 mi NNW 4.6 mph - N/A   Clear
7:15 AM 28.4 °F 23.3 °F 21.2 °F 74% 30.22 in 10.0 mi NW 4.6 mph - N/A   Clear
7:35 AM 30.4 °F 23.6 °F 22.1 °F 71% 30.23 in 10.0 mi NNW 6.9 mph - N/A   Clear
7:55 AM 30.7 °F 22.0 °F 21.2 °F 68% 30.24 in 10.0 mi NNW 10.4 mph - N/A   Clear
8:15 AM 30.7 °F 22.0 °F 20.7 °F 66% 30.24 in 10.0 mi NNW 10.4 mph - N/A   Clear
8:35 AM 30.7 °F 21.4 °F 20.1 °F 65% 30.26 in 10.0 mi NNW 11.5 mph - N/A   Clear
8:55 AM 30.7 °F 20.4 °F 19.8 °F 64% 30.27 in 10.0 mi NNW 13.8 mph 18.4 mph N/A   Clear
9:15 AM 31.8 °F 22.3 °F 19.6 °F 61% 30.28 in 10.0 mi North 12.7 mph 18.4 mph N/A   Clear
9:35 AM 32.9 °F 22.8 °F 19.8 °F 59% 30.28 in 10.0 mi NNW 15.0 mph 19.6 mph N/A   Clear
9:55 AM 33.4 °F 25.4 °F 18.9 °F 55% 30.29 in 10.0 mi NNW 10.4 mph 19.6 mph N/A   Clear
10:15 AM 35.4 °F 26.0 °F 19.9 °F 53% 30.29 in 10.0 mi NNW 15.0 mph 19.6 mph N/A   Clear
10:35 AM 35.6 °F 26.2 °F 18.7 °F 50% 30.30 in 10.0 mi NNW 15.0 mph 19.6 mph N/A   Clear
10:55 AM 35.6 °F 27.1 °F 17.8 °F 48% 30.30 in 10.0 mi NNW 12.7 mph 21.9 mph N/A   Clear
11:15 AM 35.6 °F 25.9 °F 16.9 °F 47% 30.32 in 10.0 mi NNW 16.1 mph 21.9 mph N/A   Clear
11:35 AM 36.3 °F 30.1 °F 17.8 °F 47% 30.32 in 10.0 mi NW 8.1 mph 18.4 mph N/A   Clear
11:55 AM 37.8 °F 31.3 °F 18.7 °F 46% 30.32 in 10.0 mi NW 9.2 mph 17.3 mph N/A   Clear
12:15 PM 37.9 °F 30.5 °F 16.9 °F 43% 30.32 in 10.0 mi NNW 11.5 mph 18.4 mph N/A   Clear
12:35 PM 37.9 °F 30.5 °F 16.0 °F 41% 30.31 in 10.0 mi NW 11.5 mph 20.7 mph N/A   Clear
12:55 PM 38.3 °F 31.4 °F 16.3 °F 41% 30.31 in 10.0 mi NNW 10.4 mph - N/A   Clear
1:15 PM 39.0 °F 31.8 °F 16.2 °F 40% 30.30 in 10.0 mi NNW 11.5 mph - N/A   Clear
1:35 PM 40.5 °F 34.1 °F 16.7 °F 38% 30.30 in 10.0 mi NNW 10.4 mph 16.1 mph N/A   Clear
1:55 PM 40.5 °F 35.1 °F 16.0 °F 37% 30.30 in 10.0 mi NW 8.1 mph - N/A   Clear
2:15 PM 40.6 °F 33.8 °F 15.8 °F 37% 30.29 in 10.0 mi NNW 11.5 mph - N/A   Clear
2:35 PM 40.5 °F 33.6 °F 14.7 °F 35% 30.29 in 10.0 mi NNW 11.5 mph 17.3 mph N/A   Clear
2:55 PM 41.0 °F 34.7 °F 14.7 °F 34% 30.28 in 10.0 mi North 10.4 mph 16.1 mph N/A   Clear
3:15 PM 41.9 °F 37.5 °F 15.8 °F 35% 30.27 in 10.0 mi NW 6.9 mph - N/A   Clear
3:35 PM 41.9 °F 36.9 °F 15.1 °F 34% 30.27 in 10.0 mi NW 8.1 mph - N/A   Clear
3:55 PM 41.9 °F 36.3 °F 13.3 °F 31% 30.27 in 10.0 mi NW 9.2 mph - N/A   Clear
4:15 PM 41.5 °F 37.1 °F 12.6 °F 31% 30.27 in 10.0 mi North 6.9 mph - N/A   Clear
4:35 PM 41.5 °F 35.4 °F 12.9 °F 31% 30.27 in 10.0 mi NNW 10.4 mph - N/A   Clear
4:55 PM 40.8 °F 35.0 °F 13.1 °F 32% 30.26 in 10.0 mi NNW 9.2 mph - N/A   Clear
5:15 PM 40.5 °F 36.5 °F 12.4 °F 32% 30.25 in 10.0 mi North 5.8 mph - N/A   Clear
6:35 PM 37.0 °F - 14.7 °F 40% 30.26 in 10.0 mi Calm Calm - N/A   Clear
6:55 PM 35.6 °F - 14.2 °F 42% 30.28 in 10.0 mi Calm Calm - N/A   Clear
7:15 PM 34.5 °F - 15.6 °F 46% 30.28 in 10.0 mi Calm Calm - N/A   Clear
7:35 PM 32.0 °F 28.7 °F 17.1 °F 54% 30.28 in 10.0 mi NE 3.5 mph - N/A   Clear
7:55 PM 30.7 °F 26.0 °F 15.4 °F 53% 30.27 in 10.0 mi NNE 4.6 mph - N/A   Clear
8:15 PM 31.6 °F 28.3 °F 13.6 °F 47% 30.27 in 10.0 mi North 3.5 mph - N/A   Clear
8:35 PM 30.7 °F 27.3 °F 14.2 °F 50% 30.26 in 10.0 mi ENE 3.5 mph - N/A   Clear
8:55 PM 31.8 °F 28.5 °F 13.3 °F 46% 30.27 in 10.0 mi ENE 3.5 mph - N/A   Clear
9:15 PM 30.9 °F - 14.5 °F 51% 30.27 in 10.0 mi Calm Calm - N/A   Clear
9:35 PM 30.7 °F 27.3 °F 16.5 °F 56% 30.28 in 10.0 mi ENE 3.5 mph - N/A   Clear
9:55 PM 30.7 °F - 16.0 °F 54% 30.29 in 10.0 mi Calm Calm - N/A   Clear
10:15 PM 30.7 °F - 19.4 °F 63% 30.29 in 10.0 mi Calm Calm - N/A   Clear
10:35 PM 29.3 °F 25.6 °F 19.4 °F 67% 30.29 in 10.0 mi NE 3.5 mph - N/A   Clear
10:55 PM 28.8 °F 23.7 °F 17.4 °F 63% 30.29 in 10.0 mi NE 4.6 mph - N/A   Clear
11:15 PM 30.2 °F 26.7 °F 15.1 °F 53% 30.29 in 10.0 mi NE 3.5 mph - N/A   Clear
11:35 PM 30.7 °F 27.3 °F 12.7 °F 47% 30.29 in 10.0 mi ENE 3.5 mph - N/A   Clear